sensor_id;sensor_type;location;lat;lon;timestamp;pressure;altitude;pressure_sealevel;temperature
18704;BMP180;9481;48.796;9.210;2023-01-04T00:01:17;97767.00;;;12.60
18704;BMP180;9481;48.796;9.210;2023-01-04T00:03:43;97762.00;;;12.60
18704;BMP180;9481;48.796;9.210;2023-01-04T00:06:12;97757.00;;;12.60
18704;BMP180;9481;48.796;9.210;2023-01-04T00:08:38;97767.00;;;12.60
18704;BMP180;9481;48.796;9.210;2023-01-04T00:11:19;97767.00;;;12.50
18704;BMP180;9481;48.796;9.210;2023-01-04T00:13:47;97754.00;;;12.50
18704;BMP180;9481;48.796;9.210;2023-01-04T00:16:18;97750.00;;;12.50
18704;BMP180;9481;48.796;9.210;2023-01-04T00:18:44;97750.00;;;12.50
18704;BMP180;9481;48.796;9.210;2023-01-04T00:21:16;97748.00;;;12.50
18704;BMP180;9481;48.796;9.210;2023-01-04T00:23:46;97747.00;;;12.40
18704;BMP180;9481;48.796;9.210;2023-01-04T00:26:22;97743.00;;;12.40
18704;BMP180;9481;48.796;9.210;2023-01-04T00:29:00;97737.00;;;12.40
18704;BMP180;9481;48.796;9.210;2023-01-04T00:31:27;97732.00;;;12.40
18704;BMP180;9481;48.796;9.210;2023-01-04T00:33:54;97728.00;;;12.40
18704;BMP180;9481;48.796;9.210;2023-01-04T00:36:20;97721.00;;;12.40
18704;BMP180;9481;48.796;9.210;2023-01-04T00:38:46;97706.00;;;12.30
18704;BMP180;9481;48.796;9.210;2023-01-04T00:41:12;97699.00;;;12.30
18704;BMP180;9481;48.796;9.210;2023-01-04T00:43:38;97691.00;;;12.30
18704;BMP180;9481;48.796;9.210;2023-01-04T00:46:04;97700.00;;;12.30
18704;BMP180;9481;48.796;9.210;2023-01-04T00:48:32;97695.00;;;12.30
18704;BMP180;9481;48.796;9.210;2023-01-04T00:50:57;97701.00;;;12.30
18704;BMP180;9481;48.796;9.210;2023-01-04T00:53:24;97701.00;;;12.20
18704;BMP180;9481;48.796;9.210;2023-01-04T00:55:50;97691.00;;;12.20
18704;BMP180;9481;48.796;9.210;2023-01-04T00:58:16;97680.00;;;12.20
18704;BMP180;9481;48.796;9.210;2023-01-04T01:00:41;97690.00;;;12.20
18704;BMP180;9481;48.796;9.210;2023-01-04T01:03:07;97691.00;;;12.10
18704;BMP180;9481;48.796;9.210;2023-01-04T01:05:34;97688.00;;;12.10
18704;BMP180;9481;48.796;9.210;2023-01-04T01:08:01;97687.00;;;12.10
18704;BMP180;9481;48.796;9.210;2023-01-04T01:10:49;97680.00;;;12.10
18704;BMP180;9481;48.796;9.210;2023-01-04T01:13:15;97682.00;;;12.00
18704;BMP180;9481;48.796;9.210;2023-01-04T01:15:40;97683.00;;;12.00
18704;BMP180;9481;48.796;9.210;2023-01-04T01:18:06;97687.00;;;12.00
18704;BMP180;9481;48.796;9.210;2023-01-04T01:20:32;97682.00;;;11.90
18704;BMP180;9481;48.796;9.210;2023-01-04T01:22:57;97689.00;;;11.90
18704;BMP180;9481;48.796;9.210;2023-01-04T01:25:23;97688.00;;;11.90
18704;BMP180;9481;48.796;9.210;2023-01-04T01:27:48;97679.00;;;11.90
18704;BMP180;9481;48.796;9.210;2023-01-04T01:30:14;97687.00;;;11.80
18704;BMP180;9481;48.796;9.210;2023-01-04T01:32:40;97688.00;;;11.80
18704;BMP180;9481;48.796;9.210;2023-01-04T01:35:06;97690.00;;;11.80
18704;BMP180;9481;48.796;9.210;2023-01-04T01:37:31;97690.00;;;11.80
18704;BMP180;9481;48.796;9.210;2023-01-04T01:39:57;97694.00;;;11.80
18704;BMP180;9481;48.796;9.210;2023-01-04T01:42:22;97690.00;;;11.80
18704;BMP180;9481;48.796;9.210;2023-01-04T01:45:00;97688.00;;;11.70
18704;BMP180;9481;48.796;9.210;2023-01-04T01:47:37;97691.00;;;11.70
18704;BMP180;9481;48.796;9.210;2023-01-04T01:50:16;97694.00;;;11.70
18704;BMP180;9481;48.796;9.210;2023-01-04T01:52:43;97703.00;;;11.70
18704;BMP180;9481;48.796;9.210;2023-01-04T01:55:10;97696.00;;;11.70
18704;BMP180;9481;48.796;9.210;2023-01-04T01:57:38;97705.00;;;11.70
18704;BMP180;9481;48.796;9.210;2023-01-04T02:00:10;97703.00;;;11.70
18704;BMP180;9481;48.796;9.210;2023-01-04T02:02:42;97705.00;;;11.80
18704;BMP180;9481;48.796;9.210;2023-01-04T02:05:09;97687.00;;;11.80
18704;BMP180;9481;48.796;9.210;2023-01-04T02:07:36;97699.00;;;11.80
18704;BMP180;9481;48.796;9.210;2023-01-04T02:10:02;97688.00;;;11.80
18704;BMP180;9481;48.796;9.210;2023-01-04T02:12:28;97682.00;;;11.80
18704;BMP180;9481;48.796;9.210;2023-01-04T02:14:54;97692.00;;;11.80
18704;BMP180;9481;48.796;9.210;2023-01-04T02:18:09;97682.00;;;11.80
18704;BMP180;9481;48.796;9.210;2023-01-04T02:20:45;97669.00;;;11.80
18704;BMP180;9481;48.796;9.210;2023-01-04T02:23:32;97679.00;;;11.80
18704;BMP180;9481;48.796;9.210;2023-01-04T02:27:06;97677.00;;;11.70
18704;BMP180;9481;48.796;9.210;2023-01-04T02:33:19;97670.00;;;11.70
18704;BMP180;9481;48.796;9.210;2023-01-04T02:36:32;97654.00;;;11.70
18704;BMP180;9481;48.796;9.210;2023-01-04T02:39:28;97656.00;;;11.70
18704;BMP180;9481;48.796;9.210;2023-01-04T02:44:51;97658.00;;;11.70
18704;BMP180;9481;48.796;9.210;2023-01-04T02:47:35;97647.00;;;11.70
18704;BMP180;9481;48.796;9.210;2023-01-04T02:50:51;97646.00;;;11.70
18704;BMP180;9481;48.796;9.210;2023-01-04T02:53:27;97643.00;;;11.70
18704;BMP180;9481;48.796;9.210;2023-01-04T02:56:20;97643.00;;;11.60
18704;BMP180;9481;48.796;9.210;2023-01-04T03:02:30;97636.00;;;11.60
18704;BMP180;9481;48.796;9.210;2023-01-04T03:08:29;97635.00;;;11.50
18704;BMP180;9481;48.796;9.210;2023-01-04T03:11:12;97644.00;;;11.50
18704;BMP180;9481;48.796;9.210;2023-01-04T03:14:05;97632.00;;;11.50
18704;BMP180;9481;48.796;9.210;2023-01-04T03:16:34;97624.00;;;11.50
18704;BMP180;9481;48.796;9.210;2023-01-04T03:19:04;97628.00;;;11.50
18704;BMP180;9481;48.796;9.210;2023-01-04T03:21:36;97620.00;;;11.50
18704;BMP180;9481;48.796;9.210;2023-01-04T03:24:05;97612.00;;;11.50
18704;BMP180;9481;48.796;9.210;2023-01-04T03:27:04;97601.00;;;11.40
18704;BMP180;9481;48.796;9.210;2023-01-04T03:30:08;97605.00;;;11.40
18704;BMP180;9481;48.796;9.210;2023-01-04T03:33:05;97610.00;;;11.30
18704;BMP180;9481;48.796;9.210;2023-01-04T03:36:06;97605.00;;;11.30
18704;BMP180;9481;48.796;9.210;2023-01-04T03:38:48;97601.00;;;11.30
18704;BMP180;9481;48.796;9.210;2023-01-04T03:42:09;97613.00;;;11.20
18704;BMP180;9481;48.796;9.210;2023-01-04T03:45:12;97601.00;;;11.20
18704;BMP180;9481;48.796;9.210;2023-01-04T03:48:14;97611.00;;;11.20
18704;BMP180;9481;48.796;9.210;2023-01-04T03:51:12;97609.00;;;11.10
18704;BMP180;9481;48.796;9.210;2023-01-04T03:53:59;97605.00;;;11.10
18704;BMP180;9481;48.796;9.210;2023-01-04T03:56:30;97607.00;;;11.10
18704;BMP180;9481;48.796;9.210;2023-01-04T03:58:56;97600.00;;;11.10
18704;BMP180;9481;48.796;9.210;2023-01-04T04:01:24;97603.00;;;11.10
18704;BMP180;9481;48.796;9.210;2023-01-04T04:03:51;97587.00;;;11.10
18704;BMP180;9481;48.796;9.210;2023-01-04T04:06:36;97599.00;;;11.10
18704;BMP180;9481;48.796;9.210;2023-01-04T04:09:20;97598.00;;;11.10
18704;BMP180;9481;48.796;9.210;2023-01-04T04:11:46;97588.00;;;11.10
18704;BMP180;9481;48.796;9.210;2023-01-04T04:14:12;97592.00;;;11.10
18704;BMP180;9481;48.796;9.210;2023-01-04T04:16:38;97580.00;;;11.10
18704;BMP180;9481;48.796;9.210;2023-01-04T04:19:04;97588.00;;;11.10
18704;BMP180;9481;48.796;9.210;2023-01-04T04:21:29;97590.00;;;11.20
18704;BMP180;9481;48.796;9.210;2023-01-04T04:23:55;97588.00;;;11.20
18704;BMP180;9481;48.796;9.210;2023-01-04T04:26:22;97576.00;;;11.20
18704;BMP180;9481;48.796;9.210;2023-01-04T04:28:48;97568.00;;;11.20
18704;BMP180;9481;48.796;9.210;2023-01-04T04:31:14;97575.00;;;11.20
18704;BMP180;9481;48.796;9.210;2023-01-04T04:33:39;97567.00;;;11.30
18704;BMP180;9481;48.796;9.210;2023-01-04T04:36:05;97569.00;;;11.30
18704;BMP180;9481;48.796;9.210;2023-01-04T04:38:31;97564.00;;;11.30
18704;BMP180;9481;48.796;9.210;2023-01-04T04:40:57;97572.00;;;11.30
18704;BMP180;9481;48.796;9.210;2023-01-04T04:43:42;97566.00;;;11.30
18704;BMP180;9481;48.796;9.210;2023-01-04T04:46:08;97564.00;;;11.30
18704;BMP180;9481;48.796;9.210;2023-01-04T04:48:33;97573.00;;;11.40
18704;BMP180;9481;48.796;9.210;2023-01-04T04:50:59;97575.00;;;11.40
18704;BMP180;9481;48.796;9.210;2023-01-04T04:53:25;97581.00;;;11.40
18704;BMP180;9481;48.796;9.210;2023-01-04T04:55:52;97568.00;;;11.40
18704;BMP180;9481;48.796;9.210;2023-01-04T04:58:19;97564.00;;;11.40
18704;BMP180;9481;48.796;9.210;2023-01-04T05:00:45;97560.00;;;11.40
18704;BMP180;9481;48.796;9.210;2023-01-04T05:03:10;97554.00;;;11.40
18704;BMP180;9481;48.796;9.210;2023-01-04T05:05:36;97548.00;;;11.40
18704;BMP180;9481;48.796;9.210;2023-01-04T05:08:02;97550.00;;;11.50
18704;BMP180;9481;48.796;9.210;2023-01-04T05:10:28;97540.00;;;11.50
18704;BMP180;9481;48.796;9.210;2023-01-04T05:12:53;97549.00;;;11.50
18704;BMP180;9481;48.796;9.210;2023-01-04T05:15:37;97557.00;;;11.50
18704;BMP180;9481;48.796;9.210;2023-01-04T05:18:04;97558.00;;;11.50
18704;BMP180;9481;48.796;9.210;2023-01-04T05:20:31;97560.00;;;11.50
18704;BMP180;9481;48.796;9.210;2023-01-04T05:22:56;97558.00;;;11.50
18704;BMP180;9481;48.796;9.210;2023-01-04T05:25:23;97562.00;;;11.50
18704;BMP180;9481;48.796;9.210;2023-01-04T05:27:49;97561.00;;;11.60
18704;BMP180;9481;48.796;9.210;2023-01-04T05:30:16;97567.00;;;11.60
18704;BMP180;9481;48.796;9.210;2023-01-04T05:33:02;97558.00;;;11.60
18704;BMP180;9481;48.796;9.210;2023-01-04T05:35:28;97550.00;;;11.50
18704;BMP180;9481;48.796;9.210;2023-01-04T05:37:54;97548.00;;;11.50
18704;BMP180;9481;48.796;9.210;2023-01-04T05:40:20;97552.00;;;11.60
18704;BMP180;9481;48.796;9.210;2023-01-04T05:42:46;97551.00;;;11.60
18704;BMP180;9481;48.796;9.210;2023-01-04T05:45:14;97545.00;;;11.60
18704;BMP180;9481;48.796;9.210;2023-01-04T05:47:40;97539.00;;;11.50
18704;BMP180;9481;48.796;9.210;2023-01-04T05:50:08;97539.00;;;11.50
18704;BMP180;9481;48.796;9.210;2023-01-04T05:52:34;97537.00;;;11.50
18704;BMP180;9481;48.796;9.210;2023-01-04T05:55:00;97537.00;;;11.50
18704;BMP180;9481;48.796;9.210;2023-01-04T05:57:26;97550.00;;;11.50
18704;BMP180;9481;48.796;9.210;2023-01-04T05:59:52;97548.00;;;11.50
18704;BMP180;9481;48.796;9.210;2023-01-04T06:02:28;97542.00;;;11.50
18704;BMP180;9481;48.796;9.210;2023-01-04T06:04:53;97522.00;;;11.50
18704;BMP180;9481;48.796;9.210;2023-01-04T06:07:19;97532.00;;;11.50
18704;BMP180;9481;48.796;9.210;2023-01-04T06:09:45;97534.00;;;11.50
18704;BMP180;9481;48.796;9.210;2023-01-04T06:12:12;97529.00;;;11.50
18704;BMP180;9481;48.796;9.210;2023-01-04T06:14:38;97532.00;;;11.50
18704;BMP180;9481;48.796;9.210;2023-01-04T06:17:04;97533.00;;;11.50
18704;BMP180;9481;48.796;9.210;2023-01-04T06:19:31;97517.00;;;11.50
18704;BMP180;9481;48.796;9.210;2023-01-04T06:21:57;97523.00;;;11.50
18704;BMP180;9481;48.796;9.210;2023-01-04T06:24:22;97516.00;;;11.50
18704;BMP180;9481;48.796;9.210;2023-01-04T06:26:48;97516.00;;;11.50
18704;BMP180;9481;48.796;9.210;2023-01-04T06:29:14;97511.00;;;11.60
18704;BMP180;9481;48.796;9.210;2023-01-04T06:31:40;97510.00;;;11.60
18704;BMP180;9481;48.796;9.210;2023-01-04T06:34:06;97503.00;;;11.60
18704;BMP180;9481;48.796;9.210;2023-01-04T06:36:32;97515.00;;;11.60
18704;BMP180;9481;48.796;9.210;2023-01-04T06:38:59;97517.00;;;11.70
18704;BMP180;9481;48.796;9.210;2023-01-04T06:41:25;97512.00;;;11.70
18704;BMP180;9481;48.796;9.210;2023-01-04T06:43:51;97520.00;;;11.70
18704;BMP180;9481;48.796;9.210;2023-01-04T06:46:18;97501.00;;;11.70
18704;BMP180;9481;48.796;9.210;2023-01-04T06:48:44;97515.00;;;11.70
18704;BMP180;9481;48.796;9.210;2023-01-04T06:51:10;97513.00;;;11.70
18704;BMP180;9481;48.796;9.210;2023-01-04T06:53:36;97515.00;;;11.70
18704;BMP180;9481;48.796;9.210;2023-01-04T06:56:01;97523.00;;;11.70
18704;BMP180;9481;48.796;9.210;2023-01-04T06:58:27;97517.00;;;11.70
18704;BMP180;9481;48.796;9.210;2023-01-04T07:00:54;97523.00;;;11.70
18704;BMP180;9481;48.796;9.210;2023-01-04T07:03:21;97517.00;;;11.70
18704;BMP180;9481;48.796;9.210;2023-01-04T07:05:47;97519.00;;;11.70
18704;BMP180;9481;48.796;9.210;2023-01-04T07:08:14;97513.00;;;11.80
18704;BMP180;9481;48.796;9.210;2023-01-04T07:10:40;97503.00;;;11.80
18704;BMP180;9481;48.796;9.210;2023-01-04T07:13:07;97521.00;;;11.80
18704;BMP180;9481;48.796;9.210;2023-01-04T07:15:32;97527.00;;;11.80
18704;BMP180;9481;48.796;9.210;2023-01-04T07:17:58;97527.00;;;11.90
18704;BMP180;9481;48.796;9.210;2023-01-04T07:20:24;97525.00;;;11.90
18704;BMP180;9481;48.796;9.210;2023-01-04T07:22:50;97519.00;;;11.90
18704;BMP180;9481;48.796;9.210;2023-01-04T07:25:16;97526.00;;;11.90
18704;BMP180;9481;48.796;9.210;2023-01-04T07:27:42;97513.00;;;11.90
18704;BMP180;9481;48.796;9.210;2023-01-04T07:30:08;97511.00;;;12.00
18704;BMP180;9481;48.796;9.210;2023-01-04T07:32:34;97498.00;;;12.00
18704;BMP180;9481;48.796;9.210;2023-01-04T07:35:00;97503.00;;;12.00
18704;BMP180;9481;48.796;9.210;2023-01-04T07:37:25;97512.00;;;12.00
18704;BMP180;9481;48.796;9.210;2023-01-04T07:39:51;97500.00;;;12.00
18704;BMP180;9481;48.796;9.210;2023-01-04T07:42:17;97505.00;;;12.00
18704;BMP180;9481;48.796;9.210;2023-01-04T07:44:44;97498.00;;;12.00
18704;BMP180;9481;48.796;9.210;2023-01-04T07:47:10;97499.00;;;12.10
18704;BMP180;9481;48.796;9.210;2023-01-04T07:49:36;97491.00;;;12.10
18704;BMP180;9481;48.796;9.210;2023-01-04T07:52:02;97495.00;;;12.10
18704;BMP180;9481;48.796;9.210;2023-01-04T07:54:28;97483.00;;;12.10
18704;BMP180;9481;48.796;9.210;2023-01-04T07:56:53;97487.00;;;12.10
18704;BMP180;9481;48.796;9.210;2023-01-04T07:59:20;97480.00;;;12.00
18704;BMP180;9481;48.796;9.210;2023-01-04T08:01:47;97478.00;;;12.00
18704;BMP180;9481;48.796;9.210;2023-01-04T08:04:14;97485.00;;;12.00
18704;BMP180;9481;48.796;9.210;2023-01-04T08:06:41;97481.00;;;12.00
18704;BMP180;9481;48.796;9.210;2023-01-04T08:09:10;97474.00;;;12.00
18704;BMP180;9481;48.796;9.210;2023-01-04T08:11:36;97472.00;;;12.00
18704;BMP180;9481;48.796;9.210;2023-01-04T08:14:02;97475.00;;;12.00
18704;BMP180;9481;48.796;9.210;2023-01-04T08:16:35;97478.00;;;12.00
18704;BMP180;9481;48.796;9.210;2023-01-04T08:19:09;97470.00;;;12.00
18704;BMP180;9481;48.796;9.210;2023-01-04T08:21:36;97464.00;;;12.00
18704;BMP180;9481;48.796;9.210;2023-01-04T08:24:03;97457.00;;;12.00
18704;BMP180;9481;48.796;9.210;2023-01-04T08:26:29;97454.00;;;12.00
18704;BMP180;9481;48.796;9.210;2023-01-04T08:28:56;97452.00;;;12.00
18704;BMP180;9481;48.796;9.210;2023-01-04T08:31:28;97455.00;;;12.00
18704;BMP180;9481;48.796;9.210;2023-01-04T08:33:56;97448.00;;;12.00
18704;BMP180;9481;48.796;9.210;2023-01-04T08:36:28;97455.00;;;12.00
18704;BMP180;9481;48.796;9.210;2023-01-04T08:38:58;97453.00;;;12.00
18704;BMP180;9481;48.796;9.210;2023-01-04T08:41:24;97452.00;;;12.00
18704;BMP180;9481;48.796;9.210;2023-01-04T08:43:49;97455.00;;;12.00
18704;BMP180;9481;48.796;9.210;2023-01-04T08:46:15;97447.00;;;12.00
18704;BMP180;9481;48.796;9.210;2023-01-04T08:48:41;97450.00;;;12.00
18704;BMP180;9481;48.796;9.210;2023-01-04T08:51:13;97449.00;;;12.00
18704;BMP180;9481;48.796;9.210;2023-01-04T08:53:39;97450.00;;;12.10
18704;BMP180;9481;48.796;9.210;2023-01-04T08:56:06;97439.00;;;12.10
18704;BMP180;9481;48.796;9.210;2023-01-04T08:58:35;97421.00;;;12.10
18704;BMP180;9481;48.796;9.210;2023-01-04T09:01:07;97432.00;;;12.10
18704;BMP180;9481;48.796;9.210;2023-01-04T09:03:34;97426.00;;;12.10
18704;BMP180;9481;48.796;9.210;2023-01-04T09:06:11;97416.00;;;12.10
18704;BMP180;9481;48.796;9.210;2023-01-04T09:08:39;97419.00;;;12.10
18704;BMP180;9481;48.796;9.210;2023-01-04T09:11:14;97433.00;;;12.10
18704;BMP180;9481;48.796;9.210;2023-01-04T09:13:41;97439.00;;;12.10
18704;BMP180;9481;48.796;9.210;2023-01-04T09:16:11;97434.00;;;12.10
18704;BMP180;9481;48.796;9.210;2023-01-04T09:18:37;97430.00;;;12.10
18704;BMP180;9481;48.796;9.210;2023-01-04T09:21:13;97420.00;;;12.10
18704;BMP180;9481;48.796;9.210;2023-01-04T09:23:40;97423.00;;;12.20
18704;BMP180;9481;48.796;9.210;2023-01-04T09:26:10;97428.00;;;12.20
18704;BMP180;9481;48.796;9.210;2023-01-04T09:28:37;97430.00;;;12.20
18704;BMP180;9481;48.796;9.210;2023-01-04T09:31:18;97432.00;;;12.20
18704;BMP180;9481;48.796;9.210;2023-01-04T09:33:45;97428.00;;;12.30
18704;BMP180;9481;48.796;9.210;2023-01-04T09:36:16;97440.00;;;12.30
18704;BMP180;9481;48.796;9.210;2023-01-04T09:38:42;97441.00;;;12.30
18704;BMP180;9481;48.796;9.210;2023-01-04T09:41:29;97443.00;;;12.30
18704;BMP180;9481;48.796;9.210;2023-01-04T09:44:02;97437.00;;;12.40
18704;BMP180;9481;48.796;9.210;2023-01-04T09:46:44;97430.00;;;12.40
18704;BMP180;9481;48.796;9.210;2023-01-04T09:49:18;97434.00;;;12.40
18704;BMP180;9481;48.796;9.210;2023-01-04T09:51:57;97435.00;;;12.40
18704;BMP180;9481;48.796;9.210;2023-01-04T09:54:34;97433.00;;;12.40
18704;BMP180;9481;48.796;9.210;2023-01-04T09:57:05;97433.00;;;12.40
18704;BMP180;9481;48.796;9.210;2023-01-04T09:59:38;97424.00;;;12.50
18704;BMP180;9481;48.796;9.210;2023-01-04T10:02:11;97429.00;;;12.50
18704;BMP180;9481;48.796;9.210;2023-01-04T10:04:45;97438.00;;;12.60
18704;BMP180;9481;48.796;9.210;2023-01-04T10:07:28;97423.00;;;12.50
18704;BMP180;9481;48.796;9.210;2023-01-04T10:09:54;97441.00;;;12.60
18704;BMP180;9481;48.796;9.210;2023-01-04T10:18:30;97413.00;;;12.70
18704;BMP180;9481;48.796;9.210;2023-01-04T10:26:49;97399.00;;;12.80
18704;BMP180;9481;48.796;9.210;2023-01-04T10:30:14;97408.00;;;12.80
18704;BMP180;9481;48.796;9.210;2023-01-04T10:33:03;97395.00;;;12.80
18704;BMP180;9481;48.796;9.210;2023-01-04T10:35:35;97399.00;;;12.90
18704;BMP180;9481;48.796;9.210;2023-01-04T10:38:15;97394.00;;;12.90
18704;BMP180;9481;48.796;9.210;2023-01-04T10:40:43;97400.00;;;12.90
18704;BMP180;9481;48.796;9.210;2023-01-04T10:43:46;97389.00;;;12.90
18704;BMP180;9481;48.796;9.210;2023-01-04T10:46:26;97391.00;;;12.90
18704;BMP180;9481;48.796;9.210;2023-01-04T10:49:42;97386.00;;;12.90
18704;BMP180;9481;48.796;9.210;2023-01-04T10:52:23;97372.00;;;12.90
18704;BMP180;9481;48.796;9.210;2023-01-04T10:55:03;97371.00;;;12.90
18704;BMP180;9481;48.796;9.210;2023-01-04T10:57:41;97382.00;;;13.00
18704;BMP180;9481;48.796;9.210;2023-01-04T11:00:18;97370.00;;;13.00
18704;BMP180;9481;48.796;9.210;2023-01-04T11:03:14;97366.00;;;13.00
18704;BMP180;9481;48.796;9.210;2023-01-04T11:05:58;97384.00;;;13.00
18704;BMP180;9481;48.796;9.210;2023-01-04T11:11:36;97370.00;;;13.10
18704;BMP180;9481;48.796;9.210;2023-01-04T11:14:04;97362.00;;;13.20
18704;BMP180;9481;48.796;9.210;2023-01-04T11:16:31;97367.00;;;13.20
18704;BMP180;9481;48.796;9.210;2023-01-04T11:18:57;97360.00;;;13.20
18704;BMP180;9481;48.796;9.210;2023-01-04T11:21:31;97347.00;;;13.20
18704;BMP180;9481;48.796;9.210;2023-01-04T11:24:03;97344.00;;;13.30
18704;BMP180;9481;48.796;9.210;2023-01-04T11:26:36;97346.00;;;13.30
18704;BMP180;9481;48.796;9.210;2023-01-04T11:29:59;97353.00;;;13.30
18704;BMP180;9481;48.796;9.210;2023-01-04T11:32:31;97336.00;;;13.30
18704;BMP180;9481;48.796;9.210;2023-01-04T11:34:58;97331.00;;;13.30
18704;BMP180;9481;48.796;9.210;2023-01-04T11:37:37;97330.00;;;13.30
18704;BMP180;9481;48.796;9.210;2023-01-04T11:42:49;97325.00;;;13.40
18704;BMP180;9481;48.796;9.210;2023-01-04T11:45:26;97335.00;;;13.40
18704;BMP180;9481;48.796;9.210;2023-01-04T11:47:57;97330.00;;;13.40
18704;BMP180;9481;48.796;9.210;2023-01-04T11:53:01;97322.00;;;13.40
18704;BMP180;9481;48.796;9.210;2023-01-04T11:55:30;97328.00;;;13.40
18704;BMP180;9481;48.796;9.210;2023-01-04T11:58:15;97327.00;;;13.40
18704;BMP180;9481;48.796;9.210;2023-01-04T12:00:54;97327.00;;;13.40
18704;BMP180;9481;48.796;9.210;2023-01-04T12:03:34;97321.00;;;13.40
18704;BMP180;9481;48.796;9.210;2023-01-04T12:06:20;97325.00;;;13.40
18704;BMP180;9481;48.796;9.210;2023-01-04T12:08:47;97329.00;;;13.50
18704;BMP180;9481;48.796;9.210;2023-01-04T12:11:25;97325.00;;;13.50
18704;BMP180;9481;48.796;9.210;2023-01-04T12:13:52;97329.00;;;13.60
18704;BMP180;9481;48.796;9.210;2023-01-04T12:16:43;97326.00;;;13.60
18704;BMP180;9481;48.796;9.210;2023-01-04T12:19:17;97323.00;;;13.60
18704;BMP180;9481;48.796;9.210;2023-01-04T12:21:51;97321.00;;;13.60
18704;BMP180;9481;48.796;9.210;2023-01-04T12:24:23;97316.00;;;13.60
18704;BMP180;9481;48.796;9.210;2023-01-04T12:26:50;97308.00;;;13.70
18704;BMP180;9481;48.796;9.210;2023-01-04T12:34:43;97309.00;;;13.70
18704;BMP180;9481;48.796;9.210;2023-01-04T12:37:10;97314.00;;;13.80
18704;BMP180;9481;48.796;9.210;2023-01-04T12:39:55;97304.00;;;13.80
18704;BMP180;9481;48.796;9.210;2023-01-04T12:42:21;97312.00;;;13.80
18704;BMP180;9481;48.796;9.210;2023-01-04T12:50:08;97303.00;;;13.90
18704;BMP180;9481;48.796;9.210;2023-01-04T12:52:45;97303.00;;;13.90
18704;BMP180;9481;48.796;9.210;2023-01-04T12:58:39;97284.00;;;14.00
18704;BMP180;9481;48.796;9.210;2023-01-04T13:06:03;97278.00;;;14.10
18704;BMP180;9481;48.796;9.210;2023-01-04T13:08:30;97280.00;;;14.10
18704;BMP180;9481;48.796;9.210;2023-01-04T13:10:59;97275.00;;;14.10
18704;BMP180;9481;48.796;9.210;2023-01-04T13:13:53;97259.00;;;14.10
18704;BMP180;9481;48.796;9.210;2023-01-04T13:16:42;97254.00;;;14.10
18704;BMP180;9481;48.796;9.210;2023-01-04T13:19:23;97249.00;;;14.10
18704;BMP180;9481;48.796;9.210;2023-01-04T13:21:51;97252.00;;;14.20
18704;BMP180;9481;48.796;9.210;2023-01-04T13:24:33;97238.00;;;14.20
18704;BMP180;9481;48.796;9.210;2023-01-04T13:27:11;97242.00;;;14.20
18704;BMP180;9481;48.796;9.210;2023-01-04T13:29:40;97246.00;;;14.20
18704;BMP180;9481;48.796;9.210;2023-01-04T13:37:30;97240.00;;;14.30
18704;BMP180;9481;48.796;9.210;2023-01-04T13:40:24;97234.00;;;14.30
18704;BMP180;9481;48.796;9.210;2023-01-04T13:43:41;97226.00;;;14.30
18704;BMP180;9481;48.796;9.210;2023-01-04T13:46:20;97216.00;;;14.30
18704;BMP180;9481;48.796;9.210;2023-01-04T13:48:52;97220.00;;;14.30
18704;BMP180;9481;48.796;9.210;2023-01-04T13:51:30;97219.00;;;14.30
18704;BMP180;9481;48.796;9.210;2023-01-04T13:54:04;97237.00;;;14.30
18704;BMP180;9481;48.796;9.210;2023-01-04T13:56:33;97221.00;;;14.30
18704;BMP180;9481;48.796;9.210;2023-01-04T13:59:00;97214.00;;;14.30
18704;BMP180;9481;48.796;9.210;2023-01-04T14:01:36;97211.00;;;14.30
18704;BMP180;9481;48.796;9.210;2023-01-04T14:04:10;97213.00;;;14.30
18704;BMP180;9481;48.796;9.210;2023-01-04T14:06:44;97210.00;;;14.30
18704;BMP180;9481;48.796;9.210;2023-01-04T14:11:52;97199.00;;;14.30
18704;BMP180;9481;48.796;9.210;2023-01-04T14:17:25;97201.00;;;14.30
18704;BMP180;9481;48.796;9.210;2023-01-04T14:19:57;97195.00;;;14.30
18704;BMP180;9481;48.796;9.210;2023-01-04T14:22:35;97201.00;;;14.40
18704;BMP180;9481;48.796;9.210;2023-01-04T14:30:44;97208.00;;;14.40
18704;BMP180;9481;48.796;9.210;2023-01-04T14:36:28;97183.00;;;14.30
18704;BMP180;9481;48.796;9.210;2023-01-04T14:39:22;97189.00;;;14.30
18704;BMP180;9481;48.796;9.210;2023-01-04T14:46:46;97183.00;;;14.30
18704;BMP180;9481;48.796;9.210;2023-01-04T14:49:13;97210.00;;;14.40
18704;BMP180;9481;48.796;9.210;2023-01-04T14:51:47;97206.00;;;14.40
18704;BMP180;9481;48.796;9.210;2023-01-04T14:54:15;97205.00;;;14.40
18704;BMP180;9481;48.796;9.210;2023-01-04T14:56:41;97192.00;;;14.40
18704;BMP180;9481;48.796;9.210;2023-01-04T14:59:08;97188.00;;;14.40
18704;BMP180;9481;48.796;9.210;2023-01-04T15:01:34;97197.00;;;14.50
18704;BMP180;9481;48.796;9.210;2023-01-04T15:04:05;97193.00;;;14.40
18704;BMP180;9481;48.796;9.210;2023-01-04T15:06:33;97197.00;;;14.40
18704;BMP180;9481;48.796;9.210;2023-01-04T15:08:59;97201.00;;;14.40
18704;BMP180;9481;48.796;9.210;2023-01-04T15:11:24;97206.00;;;14.40
18704;BMP180;9481;48.796;9.210;2023-01-04T15:13:50;97194.00;;;14.50
18704;BMP180;9481;48.796;9.210;2023-01-04T15:16:17;97181.00;;;14.40
18704;BMP180;9481;48.796;9.210;2023-01-04T15:18:44;97192.00;;;14.50
18704;BMP180;9481;48.796;9.210;2023-01-04T15:21:12;97197.00;;;14.50
18704;BMP180;9481;48.796;9.210;2023-01-04T15:23:38;97198.00;;;14.50
18704;BMP180;9481;48.796;9.210;2023-01-04T15:26:06;97182.00;;;14.50
18704;BMP180;9481;48.796;9.210;2023-01-04T15:28:32;97177.00;;;14.50
18704;BMP180;9481;48.796;9.210;2023-01-04T15:30:58;97170.00;;;14.50
18704;BMP180;9481;48.796;9.210;2023-01-04T15:33:27;97173.00;;;14.50
18704;BMP180;9481;48.796;9.210;2023-01-04T15:36:02;97163.00;;;14.50
18704;BMP180;9481;48.796;9.210;2023-01-04T15:38:28;97160.00;;;14.50
18704;BMP180;9481;48.796;9.210;2023-01-04T15:41:19;97153.00;;;14.40
18704;BMP180;9481;48.796;9.210;2023-01-04T15:44:07;97141.00;;;14.40
18704;BMP180;9481;48.796;9.210;2023-01-04T15:46:33;97152.00;;;14.40
18704;BMP180;9481;48.796;9.210;2023-01-04T15:48:59;97144.00;;;14.30
18704;BMP180;9481;48.796;9.210;2023-01-04T15:51:24;97145.00;;;14.40
18704;BMP180;9481;48.796;9.210;2023-01-04T15:53:52;97142.00;;;14.30
18704;BMP180;9481;48.796;9.210;2023-01-04T15:56:18;97132.00;;;14.40
18704;BMP180;9481;48.796;9.210;2023-01-04T15:58:45;97126.00;;;14.30
18704;BMP180;9481;48.796;9.210;2023-01-04T16:01:14;97132.00;;;14.30
18704;BMP180;9481;48.796;9.210;2023-01-04T16:03:40;97134.00;;;14.30
18704;BMP180;9481;48.796;9.210;2023-01-04T16:06:14;97129.00;;;14.30
18704;BMP180;9481;48.796;9.210;2023-01-04T16:08:42;97126.00;;;14.30